sensor_id;sensor_type;location;lat;lon;timestamp;pressure;altitude;pressure_sealevel;temperature;humidity
57412;BME280;43247;52.828;-8.980;2023-07-31T00:00:49;100342.90;;;17.51;93.24
57412;BME280;43247;52.828;-8.980;2023-07-31T00:01:49;100340.02;;;17.51;93.26
57412;BME280;43247;52.828;-8.980;2023-07-31T00:02:51;100340.92;;;17.51;93.22
57412;BME280;43247;52.828;-8.980;2023-07-31T00:03:50;100340.37;;;17.50;93.21
57412;BME280;43247;52.828;-8.980;2023-07-31T00:04:50;100337.01;;;17.50;93.20
57412;BME280;43247;52.828;-8.980;2023-07-31T00:05:50;100333.56;;;17.50;93.23
57412;BME280;43247;52.828;-8.980;2023-07-31T00:06:50;100332.79;;;17.50;93.17
57412;BME280;43247;52.828;-8.980;2023-07-31T00:07:50;100329.76;;;17.49;93.20
57412;BME280;43247;52.828;-8.980;2023-07-31T00:08:51;100328.00;;;17.49;93.21
57412;BME280;43247;52.828;-8.980;2023-07-31T00:09:51;100331.52;;;17.48;93.22
57412;BME280;43247;52.828;-8.980;2023-07-31T00:10:51;100330.83;;;17.48;93.25
57412;BME280;43247;52.828;-8.980;2023-07-31T00:11:51;100331.56;;;17.48;93.28
57412;BME280;43247;52.828;-8.980;2023-07-31T00:12:51;100334.42;;;17.48;93.23
57412;BME280;43247;52.828;-8.980;2023-07-31T00:13:53;100332.26;;;17.47;93.21
57412;BME280;43247;52.828;-8.980;2023-07-31T00:14:51;100331.80;;;17.47;93.26
57412;BME280;43247;52.828;-8.980;2023-07-31T00:15:52;100334.82;;;17.47;93.19
57412;BME280;43247;52.828;-8.980;2023-07-31T00:16:52;100335.83;;;17.46;93.24
57412;BME280;43247;52.828;-8.980;2023-07-31T00:17:52;100340.03;;;17.46;93.23
57412;BME280;43247;52.828;-8.980;2023-07-31T00:18:52;100341.51;;;17.47;93.28
57412;BME280;43247;52.828;-8.980;2023-07-31T00:19:52;100342.60;;;17.47;93.28
57412;BME280;43247;52.828;-8.980;2023-07-31T00:20:52;100343.85;;;17.46;93.30
57412;BME280;43247;52.828;-8.980;2023-07-31T00:21:53;100345.99;;;17.46;93.29
57412;BME280;43247;52.828;-8.980;2023-07-31T00:22:53;100344.50;;;17.46;93.27
57412;BME280;43247;52.828;-8.980;2023-07-31T00:23:53;100343.99;;;17.46;93.24
57412;BME280;43247;52.828;-8.980;2023-07-31T00:24:53;100348.92;;;17.46;93.25
57412;BME280;43247;52.828;-8.980;2023-07-31T00:25:54;100351.95;;;17.45;93.21
57412;BME280;43247;52.828;-8.980;2023-07-31T00:26:54;100358.44;;;17.45;93.24
57412;BME280;43247;52.828;-8.980;2023-07-31T00:27:54;100358.48;;;17.44;93.27
57412;BME280;43247;52.828;-8.980;2023-07-31T00:28:55;100357.41;;;17.44;93.30
57412;BME280;43247;52.828;-8.980;2023-07-31T00:29:55;100352.73;;;17.44;93.27
57412;BME280;43247;52.828;-8.980;2023-07-31T00:30:55;100347.29;;;17.43;93.27
57412;BME280;43247;52.828;-8.980;2023-07-31T00:31:55;100346.88;;;17.43;93.30
57412;BME280;43247;52.828;-8.980;2023-07-31T00:32:55;100344.96;;;17.42;93.32
57412;BME280;43247;52.828;-8.980;2023-07-31T00:33:55;100348.71;;;17.42;93.39
57412;BME280;43247;52.828;-8.980;2023-07-31T00:34:55;100350.67;;;17.42;93.37
57412;BME280;43247;52.828;-8.980;2023-07-31T00:35:56;100353.71;;;17.41;93.35
57412;BME280;43247;52.828;-8.980;2023-07-31T00:36:56;100357.00;;;17.41;93.35
57412;BME280;43247;52.828;-8.980;2023-07-31T00:38:56;100355.20;;;17.40;93.36
57412;BME280;43247;52.828;-8.980;2023-07-31T00:39:56;100355.56;;;17.39;93.41
57412;BME280;43247;52.828;-8.980;2023-07-31T00:40:56;100355.63;;;17.39;93.47
57412;BME280;43247;52.828;-8.980;2023-07-31T00:41:57;100358.83;;;17.39;93.46
57412;BME280;43247;52.828;-8.980;2023-07-31T00:42:57;100357.75;;;17.39;93.44
57412;BME280;43247;52.828;-8.980;2023-07-31T00:43:57;100359.82;;;17.38;93.47
57412;BME280;43247;52.828;-8.980;2023-07-31T00:44:57;100356.95;;;17.38;93.44
57412;BME280;43247;52.828;-8.980;2023-07-31T00:45:57;100357.70;;;17.37;93.44
57412;BME280;43247;52.828;-8.980;2023-07-31T00:46:57;100352.92;;;17.37;93.43
57412;BME280;43247;52.828;-8.980;2023-07-31T00:47:58;100352.54;;;17.37;93.44
57412;BME280;43247;52.828;-8.980;2023-07-31T00:48:58;100346.45;;;17.36;93.47
57412;BME280;43247;52.828;-8.980;2023-07-31T00:49:58;100348.02;;;17.36;93.50
57412;BME280;43247;52.828;-8.980;2023-07-31T00:50:58;100345.92;;;17.36;93.55
57412;BME280;43247;52.828;-8.980;2023-07-31T00:51:59;100347.14;;;17.35;93.53
57412;BME280;43247;52.828;-8.980;2023-07-31T00:52:58;100348.04;;;17.35;93.55
57412;BME280;43247;52.828;-8.980;2023-07-31T00:53:58;100351.41;;;17.34;93.56
57412;BME280;43247;52.828;-8.980;2023-07-31T00:54:59;100352.59;;;17.34;93.58
57412;BME280;43247;52.828;-8.980;2023-07-31T00:55:59;100355.15;;;17.34;93.61
57412;BME280;43247;52.828;-8.980;2023-07-31T00:57:00;100358.12;;;17.34;93.63
57412;BME280;43247;52.828;-8.980;2023-07-31T00:57:59;100357.97;;;17.33;93.59
57412;BME280;43247;52.828;-8.980;2023-07-31T00:58:59;100362.16;;;17.33;93.59
57412;BME280;43247;52.828;-8.980;2023-07-31T01:00:00;100366.05;;;17.33;93.59
57412;BME280;43247;52.828;-8.980;2023-07-31T01:00:59;100368.16;;;17.33;93.57
57412;BME280;43247;52.828;-8.980;2023-07-31T01:02:00;100367.54;;;17.33;93.60
57412;BME280;43247;52.828;-8.980;2023-07-31T01:03:00;100367.86;;;17.33;93.60
57412;BME280;43247;52.828;-8.980;2023-07-31T01:04:00;100364.65;;;17.32;93.58
57412;BME280;43247;52.828;-8.980;2023-07-31T01:05:00;100363.80;;;17.31;93.52
57412;BME280;43247;52.828;-8.980;2023-07-31T01:06:10;100363.34;;;17.29;93.68
57412;BME280;43247;52.828;-8.980;2023-07-31T01:07:05;100359.24;;;17.28;93.69
57412;BME280;43247;52.828;-8.980;2023-07-31T01:09:03;100349.03;;;17.25;93.87
57412;BME280;43247;52.828;-8.980;2023-07-31T01:10:07;100348.88;;;17.25;93.96
57412;BME280;43247;52.828;-8.980;2023-07-31T01:11:07;100346.96;;;17.25;93.96
57412;BME280;43247;52.828;-8.980;2023-07-31T01:12:03;100349.49;;;17.24;94.02
57412;BME280;43247;52.828;-8.980;2023-07-31T01:13:03;100352.78;;;17.24;94.02
57412;BME280;43247;52.828;-8.980;2023-07-31T01:14:02;100356.40;;;17.23;94.09
57412;BME280;43247;52.828;-8.980;2023-07-31T01:15:04;100358.34;;;17.23;94.12
57412;BME280;43247;52.828;-8.980;2023-07-31T01:16:01;100355.27;;;17.22;94.05
57412;BME280;43247;52.828;-8.980;2023-07-31T01:17:02;100357.75;;;17.22;94.10
57412;BME280;43247;52.828;-8.980;2023-07-31T01:18:02;100360.45;;;17.21;94.19
57412;BME280;43247;52.828;-8.980;2023-07-31T01:19:02;100362.27;;;17.20;94.17
57412;BME280;43247;52.828;-8.980;2023-07-31T01:20:07;100365.71;;;17.20;94.19
57412;BME280;43247;52.828;-8.980;2023-07-31T01:21:15;100364.36;;;17.19;94.19
57412;BME280;43247;52.828;-8.980;2023-07-31T01:24:20;100362.21;;;17.18;94.24
57412;BME280;43247;52.828;-8.980;2023-07-31T01:25:15;100361.20;;;17.17;94.24
57412;BME280;43247;52.828;-8.980;2023-07-31T01:26:11;100357.08;;;17.16;94.33
57412;BME280;43247;52.828;-8.980;2023-07-31T01:27:10;100358.18;;;17.16;94.24
57412;BME280;43247;52.828;-8.980;2023-07-31T01:28:09;100359.05;;;17.16;94.27
57412;BME280;43247;52.828;-8.980;2023-07-31T01:29:12;100360.48;;;17.15;94.33
57412;BME280;43247;52.828;-8.980;2023-07-31T01:30:09;100363.85;;;17.15;94.39
57412;BME280;43247;52.828;-8.980;2023-07-31T01:31:07;100361.75;;;17.15;94.45
57412;BME280;43247;52.828;-8.980;2023-07-31T01:32:07;100362.72;;;17.14;94.45
57412;BME280;43247;52.828;-8.980;2023-07-31T01:33:06;100363.85;;;17.14;94.36
57412;BME280;43247;52.828;-8.980;2023-07-31T01:34:07;100364.98;;;17.15;94.39
57412;BME280;43247;52.828;-8.980;2023-07-31T01:35:07;100365.14;;;17.16;94.66
57412;BME280;43247;52.828;-8.980;2023-07-31T01:36:07;100361.01;;;17.17;94.75
57412;BME280;43247;52.828;-8.980;2023-07-31T01:37:07;100366.76;;;17.19;94.55
57412;BME280;43247;52.828;-8.980;2023-07-31T01:38:07;100365.39;;;17.20;94.32
57412;BME280;43247;52.828;-8.980;2023-07-31T01:39:07;100368.09;;;17.21;94.16
57412;BME280;43247;52.828;-8.980;2023-07-31T01:40:08;100369.15;;;17.22;93.89
57412;BME280;43247;52.828;-8.980;2023-07-31T01:41:08;100361.79;;;17.23;93.63
57412;BME280;43247;52.828;-8.980;2023-07-31T01:42:08;100359.86;;;17.25;93.44
57412;BME280;43247;52.828;-8.980;2023-07-31T01:43:08;100357.86;;;17.25;93.30
57412;BME280;43247;52.828;-8.980;2023-07-31T01:44:08;100355.48;;;17.27;93.15
57412;BME280;43247;52.828;-8.980;2023-07-31T01:45:09;100355.85;;;17.28;93.01
57412;BME280;43247;52.828;-8.980;2023-07-31T01:46:08;100357.31;;;17.29;92.90
57412;BME280;43247;52.828;-8.980;2023-07-31T01:47:08;100353.97;;;17.30;92.86
57412;BME280;43247;52.828;-8.980;2023-07-31T01:48:09;100351.93;;;17.31;92.83
57412;BME280;43247;52.828;-8.980;2023-07-31T01:49:09;100345.94;;;17.31;92.77
57412;BME280;43247;52.828;-8.980;2023-07-31T01:50:10;100346.19;;;17.32;92.76
57412;BME280;43247;52.828;-8.980;2023-07-31T01:51:09;100346.89;;;17.32;92.70
57412;BME280;43247;52.828;-8.980;2023-07-31T01:52:09;100346.18;;;17.32;92.72
57412;BME280;43247;52.828;-8.980;2023-07-31T01:53:09;100345.48;;;17.33;92.73
57412;BME280;43247;52.828;-8.980;2023-07-31T01:54:09;100342.08;;;17.33;92.70
57412;BME280;43247;52.828;-8.980;2023-07-31T01:55:10;100347.28;;;17.33;92.72
57412;BME280;43247;52.828;-8.980;2023-07-31T01:56:10;100345.22;;;17.33;92.80
57412;BME280;43247;52.828;-8.980;2023-07-31T01:57:10;100345.44;;;17.33;92.78
57412;BME280;43247;52.828;-8.980;2023-07-31T01:58:10;100347.36;;;17.33;92.85
57412;BME280;43247;52.828;-8.980;2023-07-31T01:59:10;100347.57;;;17.33;92.93
57412;BME280;43247;52.828;-8.980;2023-07-31T02:00:11;100348.28;;;17.33;92.90
57412;BME280;43247;52.828;-8.980;2023-07-31T02:01:10;100347.46;;;17.33;92.87
57412;BME280;43247;52.828;-8.980;2023-07-31T02:02:11;100351.16;;;17.33;92.94
57412;BME280;43247;52.828;-8.980;2023-07-31T02:03:11;100346.92;;;17.33;92.90
57412;BME280;43247;52.828;-8.980;2023-07-31T02:04:11;100344.34;;;17.33;92.94
57412;BME280;43247;52.828;-8.980;2023-07-31T02:05:11;100343.45;;;17.32;92.96
57412;BME280;43247;52.828;-8.980;2023-07-31T02:06:11;100340.38;;;17.32;92.96
57412;BME280;43247;52.828;-8.980;2023-07-31T02:07:12;100341.30;;;17.32;92.96
57412;BME280;43247;52.828;-8.980;2023-07-31T02:08:12;100343.73;;;17.32;92.90
57412;BME280;43247;52.828;-8.980;2023-07-31T02:09:12;100343.20;;;17.32;92.88
57412;BME280;43247;52.828;-8.980;2023-07-31T02:10:12;100343.49;;;17.31;92.93
57412;BME280;43247;52.828;-8.980;2023-07-31T02:11:12;100346.93;;;17.31;92.90
57412;BME280;43247;52.828;-8.980;2023-07-31T02:12:13;100352.63;;;17.31;92.96
57412;BME280;43247;52.828;-8.980;2023-07-31T02:13:12;100352.37;;;17.31;92.99
57412;BME280;43247;52.828;-8.980;2023-07-31T02:14:13;100355.11;;;17.30;93.02
57412;BME280;43247;52.828;-8.980;2023-07-31T02:15:13;100355.66;;;17.30;93.03
57412;BME280;43247;52.828;-8.980;2023-07-31T02:16:13;100357.48;;;17.29;93.05
57412;BME280;43247;52.828;-8.980;2023-07-31T02:17:14;100358.86;;;17.29;93.08
57412;BME280;43247;52.828;-8.980;2023-07-31T02:18:14;100357.45;;;17.29;93.11
57412;BME280;43247;52.828;-8.980;2023-07-31T02:19:14;100352.27;;;17.29;93.12
57412;BME280;43247;52.828;-8.980;2023-07-31T02:20:15;100345.02;;;17.28;93.13
57412;BME280;43247;52.828;-8.980;2023-07-31T02:21:15;100343.81;;;17.28;93.12
57412;BME280;43247;52.828;-8.980;2023-07-31T02:22:15;100339.33;;;17.28;93.14
57412;BME280;43247;52.828;-8.980;2023-07-31T02:23:15;100332.68;;;17.27;93.10
57412;BME280;43247;52.828;-8.980;2023-07-31T02:24:15;100330.72;;;17.26;93.11
57412;BME280;43247;52.828;-8.980;2023-07-31T02:25:15;100331.28;;;17.26;93.09
57412;BME280;43247;52.828;-8.980;2023-07-31T02:26:16;100332.23;;;17.26;93.16
57412;BME280;43247;52.828;-8.980;2023-07-31T02:27:16;100333.60;;;17.25;93.14
57412;BME280;43247;52.828;-8.980;2023-07-31T02:28:16;100325.84;;;17.25;93.17
57412;BME280;43247;52.828;-8.980;2023-07-31T02:29:16;100327.48;;;17.24;93.22
57412;BME280;43247;52.828;-8.980;2023-07-31T02:30:17;100323.34;;;17.24;93.18
57412;BME280;43247;52.828;-8.980;2023-07-31T02:31:17;100317.65;;;17.24;93.19
57412;BME280;43247;52.828;-8.980;2023-07-31T02:32:17;100311.11;;;17.24;93.16
57412;BME280;43247;52.828;-8.980;2023-07-31T02:33:17;100306.02;;;17.23;93.18
57412;BME280;43247;52.828;-8.980;2023-07-31T02:34:17;100297.75;;;17.22;93.19
57412;BME280;43247;52.828;-8.980;2023-07-31T02:35:17;100291.50;;;17.22;93.18
57412;BME280;43247;52.828;-8.980;2023-07-31T02:36:18;100288.35;;;17.22;93.18
57412;BME280;43247;52.828;-8.980;2023-07-31T02:37:18;100291.48;;;17.21;93.13
57412;BME280;43247;52.828;-8.980;2023-07-31T02:38:18;100301.17;;;17.21;93.16
57412;BME280;43247;52.828;-8.980;2023-07-31T02:39:18;100308.17;;;17.21;93.27
57412;BME280;43247;52.828;-8.980;2023-07-31T02:40:18;100312.52;;;17.21;93.29
57412;BME280;43247;52.828;-8.980;2023-07-31T02:41:18;100314.08;;;17.21;93.26
57412;BME280;43247;52.828;-8.980;2023-07-31T02:42:18;100313.98;;;17.20;93.30
57412;BME280;43247;52.828;-8.980;2023-07-31T02:43:19;100313.75;;;17.19;93.31
57412;BME280;43247;52.828;-8.980;2023-07-31T02:44:19;100309.96;;;17.20;93.30
57412;BME280;43247;52.828;-8.980;2023-07-31T02:45:19;100305.67;;;17.19;93.29
57412;BME280;43247;52.828;-8.980;2023-07-31T02:46:20;100301.76;;;17.19;93.27
57412;BME280;43247;52.828;-8.980;2023-07-31T02:47:20;100301.90;;;17.19;93.32
57412;BME280;43247;52.828;-8.980;2023-07-31T02:48:20;100303.39;;;17.18;93.30
57412;BME280;43247;52.828;-8.980;2023-07-31T02:49:21;100305.22;;;17.18;93.30
57412;BME280;43247;52.828;-8.980;2023-07-31T02:50:21;100307.48;;;17.18;93.27
57412;BME280;43247;52.828;-8.980;2023-07-31T02:51:21;100309.52;;;17.18;93.29
57412;BME280;43247;52.828;-8.980;2023-07-31T02:52:21;100312.69;;;17.17;93.31
57412;BME280;43247;52.828;-8.980;2023-07-31T02:53:21;100313.86;;;17.17;93.28
57412;BME280;43247;52.828;-8.980;2023-07-31T02:54:21;100314.81;;;17.16;93.30
57412;BME280;43247;52.828;-8.980;2023-07-31T02:55:21;100318.37;;;17.16;93.26
57412;BME280;43247;52.828;-8.980;2023-07-31T02:56:22;100320.11;;;17.15;93.31
57412;BME280;43247;52.828;-8.980;2023-07-31T02:57:22;100320.08;;;17.14;93.36
57412;BME280;43247;52.828;-8.980;2023-07-31T02:58:22;100320.35;;;17.12;93.47
57412;BME280;43247;52.828;-8.980;2023-07-31T02:59:22;100319.71;;;17.10;93.56
57412;BME280;43247;52.828;-8.980;2023-07-31T03:00:23;100316.67;;;17.09;93.66
57412;BME280;43247;52.828;-8.980;2023-07-31T03:01:23;100310.15;;;17.09;93.75
57412;BME280;43247;52.828;-8.980;2023-07-31T03:02:23;100304.45;;;17.09;93.75
57412;BME280;43247;52.828;-8.980;2023-07-31T03:03:23;100302.18;;;17.09;93.74
57412;BME280;43247;52.828;-8.980;2023-07-31T03:04:23;100306.24;;;17.10;93.57
57412;BME280;43247;52.828;-8.980;2023-07-31T03:05:23;100306.88;;;17.10;93.40
57412;BME280;43247;52.828;-8.980;2023-07-31T03:06:24;100304.71;;;17.11;93.16
57412;BME280;43247;52.828;-8.980;2023-07-31T03:07:24;100306.96;;;17.12;92.97
57412;BME280;43247;52.828;-8.980;2023-07-31T03:08:24;100306.68;;;17.13;92.95
57412;BME280;43247;52.828;-8.980;2023-07-31T03:09:24;100305.61;;;17.14;92.76
57412;BME280;43247;52.828;-8.980;2023-07-31T03:10:24;100305.57;;;17.15;92.43
57412;BME280;43247;52.828;-8.980;2023-07-31T03:11:25;100303.99;;;17.17;92.03
57412;BME280;43247;52.828;-8.980;2023-07-31T03:12:25;100302.56;;;17.19;91.72
57412;BME280;43247;52.828;-8.980;2023-07-31T03:13:25;100302.70;;;17.20;91.42
57412;BME280;43247;52.828;-8.980;2023-07-31T03:14:25;100301.60;;;17.22;91.30
57412;BME280;43247;52.828;-8.980;2023-07-31T03:15:25;100305.42;;;17.23;91.25
57412;BME280;43247;52.828;-8.980;2023-07-31T03:16:25;100307.50;;;17.23;91.20
57412;BME280;43247;52.828;-8.980;2023-07-31T03:17:25;100310.20;;;17.24;91.17
57412;BME280;43247;52.828;-8.980;2023-07-31T03:18:26;100312.13;;;17.25;91.19
57412;BME280;43247;52.828;-8.980;2023-07-31T03:19:26;100312.53;;;17.25;91.15
57412;BME280;43247;52.828;-8.980;2023-07-31T03:20:26;100310.31;;;17.25;91.15
57412;BME280;43247;52.828;-8.980;2023-07-31T03:21:26;100302.98;;;17.25;91.13
57412;BME280;43247;52.828;-8.980;2023-07-31T03:22:26;100297.70;;;17.25;91.54
57412;BME280;43247;52.828;-8.980;2023-07-31T03:23:26;100288.95;;;17.23;91.33
57412;BME280;43247;52.828;-8.980;2023-07-31T03:24:28;100282.70;;;17.23;91.05
57412;BME280;43247;52.828;-8.980;2023-07-31T03:25:27;100287.16;;;17.23;90.93
57412;BME280;43247;52.828;-8.980;2023-07-31T03:26:27;100288.50;;;17.23;90.76
57412;BME280;43247;52.828;-8.980;2023-07-31T03:27:27;100292.58;;;17.24;90.67
57412;BME280;43247;52.828;-8.980;2023-07-31T03:28:28;100291.60;;;17.25;90.62
57412;BME280;43247;52.828;-8.980;2023-07-31T03:29:28;100286.91;;;17.25;90.59
57412;BME280;43247;52.828;-8.980;2023-07-31T03:30:28;100283.82;;;17.25;90.67
57412;BME280;43247;52.828;-8.980;2023-07-31T03:31:29;100280.14;;;17.25;90.68
57412;BME280;43247;52.828;-8.980;2023-07-31T03:32:29;100278.47;;;17.25;90.70
57412;BME280;43247;52.828;-8.980;2023-07-31T03:33:29;100278.71;;;17.25;90.76
57412;BME280;43247;52.828;-8.980;2023-07-31T03:34:29;100277.09;;;17.26;90.87
57412;BME280;43247;52.828;-8.980;2023-07-31T03:35:29;100271.47;;;17.25;90.83
57412;BME280;43247;52.828;-8.980;2023-07-31T03:36:29;100271.53;;;17.25;91.09
57412;BME280;43247;52.828;-8.980;2023-07-31T03:37:29;100273.29;;;17.25;90.90
57412;BME280;43247;52.828;-8.980;2023-07-31T03:38:30;100274.15;;;17.24;90.70
57412;BME280;43247;52.828;-8.980;2023-07-31T03:39:30;100277.06;;;17.24;90.60
57412;BME280;43247;52.828;-8.980;2023-07-31T03:40:30;100280.00;;;17.25;90.58
57412;BME280;43247;52.828;-8.980;2023-07-31T03:41:30;100280.71;;;17.25;90.41
57412;BME280;43247;52.828;-8.980;2023-07-31T03:42:30;100281.28;;;17.25;90.35
57412;BME280;43247;52.828;-8.980;2023-07-31T03:43:31;100283.63;;;17.26;90.42
57412;BME280;43247;52.828;-8.980;2023-07-31T03:44:31;100289.02;;;17.27;90.48
57412;BME280;43247;52.828;-8.980;2023-07-31T03:45:31;100297.70;;;17.26;90.63
57412;BME280;43247;52.828;-8.980;2023-07-31T03:46:31;100305.00;;;17.26;90.75
57412;BME280;43247;52.828;-8.980;2023-07-31T03:47:31;100305.52;;;17.26;90.74
57412;BME280;43247;52.828;-8.980;2023-07-31T03:48:32;100313.56;;;17.26;90.76
57412;BME280;43247;52.828;-8.980;2023-07-31T03:49:32;100318.00;;;17.26;90.74
57412;BME280;43247;52.828;-8.980;2023-07-31T03:50:32;100319.36;;;17.25;90.79
57412;BME280;43247;52.828;-8.980;2023-07-31T03:51:32;100328.40;;;17.26;90.93
57412;BME280;43247;52.828;-8.980;2023-07-31T03:52:32;100330.41;;;17.25;90.92
57412;BME280;43247;52.828;-8.980;2023-07-31T03:53:32;100334.92;;;17.25;90.93
57412;BME280;43247;52.828;-8.980;2023-07-31T03:54:32;100337.45;;;17.25;90.93
57412;BME280;43247;52.828;-8.980;2023-07-31T03:55:33;100339.27;;;17.24;90.89
57412;BME280;43247;52.828;-8.980;2023-07-31T03:56:33;100338.66;;;17.24;91.12
57412;BME280;43247;52.828;-8.980;2023-07-31T03:57:33;100330.95;;;17.23;91.12
57412;BME280;43247;52.828;-8.980;2023-07-31T03:58:33;100329.17;;;17.23;91.13
57412;BME280;43247;52.828;-8.980;2023-07-31T03:59:33;100325.47;;;17.23;91.21
57412;BME280;43247;52.828;-8.980;2023-07-31T04:00:33;100324.91;;;17.24;91.21
57412;BME280;43247;52.828;-8.980;2023-07-31T04:01:34;100329.02;;;17.22;91.26
57412;BME280;43247;52.828;-8.980;2023-07-31T04:02:34;100328.47;;;17.22;91.30
57412;BME280;43247;52.828;-8.980;2023-07-31T04:03:34;100330.98;;;17.22;91.33
57412;BME280;43247;52.828;-8.980;2023-07-31T04:04:35;100326.88;;;17.22;91.40
57412;BME280;43247;52.828;-8.980;2023-07-31T04:05:38;100331.10;;;17.21;91.32
57412;BME280;43247;52.828;-8.980;2023-07-31T04:06:35;100332.09;;;17.21;91.42
57412;BME280;43247;52.828;-8.980;2023-07-31T04:07:35;100331.33;;;17.21;91.39
57412;BME280;43247;52.828;-8.980;2023-07-31T04:08:35;100331.22;;;17.20;91.59
57412;BME280;43247;52.828;-8.980;2023-07-31T04:09:35;100331.11;;;17.20;91.46
57412;BME280;43247;52.828;-8.980;2023-07-31T04:10:36;100327.60;;;17.20;91.59
57412;BME280;43247;52.828;-8.980;2023-07-31T04:11:36;100325.57;;;17.19;91.52
57412;BME280;43247;52.828;-8.980;2023-07-31T04:12:37;100324.96;;;17.19;91.65
57412;BME280;43247;52.828;-8.980;2023-07-31T04:13:37;100329.84;;;17.19;91.71
57412;BME280;43247;52.828;-8.980;2023-07-31T04:14:37;100334.40;;;17.18;91.77
57412;BME280;43247;52.828;-8.980;2023-07-31T04:15:37;100332.67;;;17.18;91.92
57412;BME280;43247;52.828;-8.980;2023-07-31T04:16:37;100340.13;;;17.18;91.90
57412;BME280;43247;52.828;-8.980;2023-07-31T04:17:37;100338.89;;;17.18;91.97
57412;BME280;43247;52.828;-8.980;2023-07-31T04:18:39;100341.31;;;17.17;91.99
57412;BME280;43247;52.828;-8.980;2023-07-31T04:19:38;100346.23;;;17.17;91.99
57412;BME280;43247;52.828;-8.980;2023-07-31T04:20:38;100339.08;;;17.16;92.05
57412;BME280;43247;52.828;-8.980;2023-07-31T04:21:39;100334.56;;;17.16;92.04
57412;BME280;43247;52.828;-8.980;2023-07-31T04:22:39;100332.68;;;17.16;92.07
57412;BME280;43247;52.828;-8.980;2023-07-31T04:23:39;100331.19;;;17.15;92.13
57412;BME280;43247;52.828;-8.980;2023-07-31T04:24:39;100334.02;;;17.14;92.13
57412;BME280;43247;52.828;-8.980;2023-07-31T04:25:39;100335.95;;;17.13;92.17
57412;BME280;43247;52.828;-8.980;2023-07-31T04:26:39;100334.90;;;17.13;92.17
57412;BME280;43247;52.828;-8.980;2023-07-31T04:27:40;100335.52;;;17.12;92.24
57412;BME280;43247;52.828;-8.980;2023-07-31T04:28:40;100340.26;;;17.11;92.26
57412;BME280;43247;52.828;-8.980;2023-07-31T04:29:40;100339.88;;;17.11;92.29
57412;BME280;43247;52.828;-8.980;2023-07-31T04:30:40;100344.57;;;17.10;92.28
57412;BME280;43247;52.828;-8.980;2023-07-31T04:31:40;100342.07;;;17.10;92.29
57412;BME280;43247;52.828;-8.980;2023-07-31T04:32:40;100343.87;;;17.09;92.28
57412;BME280;43247;52.828;-8.980;2023-07-31T04:33:40;100347.66;;;17.09;92.31
57412;BME280;43247;52.828;-8.980;2023-07-31T04:34:41;100349.36;;;17.09;92.30
57412;BME280;43247;52.828;-8.980;2023-07-31T04:35:41;100347.74;;;17.08;92.28
57412;BME280;43247;52.828;-8.980;2023-07-31T04:36:41;100346.81;;;17.07;92.20
57412;BME280;43247;52.828;-8.980;2023-07-31T04:37:41;100351.65;;;17.06;92.17
57412;BME280;43247;52.828;-8.980;2023-07-31T04:38:41;100349.08;;;17.05;92.15
57412;BME280;43247;52.828;-8.980;2023-07-31T04:39:41;100343.33;;;17.05;92.17
57412;BME280;43247;52.828;-8.980;2023-07-31T04:40:41;100346.64;;;17.04;92.15
57412;BME280;43247;52.828;-8.980;2023-07-31T04:41:42;100341.23;;;17.03;92.13
57412;BME280;43247;52.828;-8.980;2023-07-31T04:42:42;100336.99;;;17.02;92.23
57412;BME280;43247;52.828;-8.980;2023-07-31T04:43:42;100334.35;;;17.02;92.33
57412;BME280;43247;52.828;-8.980;2023-07-31T04:44:42;100329.67;;;17.00;92.34
57412;BME280;43247;52.828;-8.980;2023-07-31T04:45:44;100329.84;;;16.99;92.32
57412;BME280;43247;52.828;-8.980;2023-07-31T04:46:42;100328.95;;;16.99;92.33
57412;BME280;43247;52.828;-8.980;2023-07-31T04:47:43;100326.47;;;16.98;92.35
57412;BME280;43247;52.828;-8.980;2023-07-31T04:48:43;100328.93;;;16.98;92.41
57412;BME280;43247;52.828;-8.980;2023-07-31T04:49:43;100329.07;;;16.98;92.41
57412;BME280;43247;52.828;-8.980;2023-07-31T04:50:43;100330.85;;;16.97;92.41
57412;BME280;43247;52.828;-8.980;2023-07-31T04:51:43;100327.61;;;16.97;92.44
57412;BME280;43247;52.828;-8.980;2023-07-31T04:52:43;100322.76;;;16.96;92.41
57412;BME280;43247;52.828;-8.980;2023-07-31T04:53:43;100323.12;;;16.95;92.39
57412;BME280;43247;52.828;-8.980;2023-07-31T04:54:44;100323.48;;;16.94;92.40
57412;BME280;43247;52.828;-8.980;2023-07-31T04:55:44;100324.36;;;16.93;92.36
57412;BME280;43247;52.828;-8.980;2023-07-31T04:56:44;100326.30;;;16.93;92.41
57412;BME280;43247;52.828;-8.980;2023-07-31T04:57:44;100325.53;;;16.92;92.43
57412;BME280;43247;52.828;-8.980;2023-07-31T04:58:45;100322.69;;;16.91;92.43
57412;BME280;43247;52.828;-8.980;2023-07-31T04:59:45;100324.21;;;16.91;92.45
57412;BME280;43247;52.828;-8.980;2023-07-31T05:00:45;100327.66;;;16.90;92.46
57412;BME280;43247;52.828;-8.980;2023-07-31T05:01:46;100330.45;;;16.90;92.46
57412;BME280;43247;52.828;-8.980;2023-07-31T05:02:46;100328.90;;;16.89;92.46
57412;BME280;43247;52.828;-8.980;2023-07-31T05:03:46;100324.57;;;16.89;92.50
57412;BME280;43247;52.828;-8.980;2023-07-31T05:04:47;100324.32;;;16.89;92.55
57412;BME280;43247;52.828;-8.980;2023-07-31T05:05:47;100321.98;;;16.88;92.47
57412;BME280;43247;52.828;-8.980;2023-07-31T05:06:47;100315.57;;;16.88;92.45
57412;BME280;43247;52.828;-8.980;2023-07-31T05:07:47;100315.46;;;16.88;92.46
57412;BME280;43247;52.828;-8.980;2023-07-31T05:08:47;100318.25;;;16.88;92.45
57412;BME280;43247;52.828;-8.980;2023-07-31T05:09:47;100315.23;;;16.88;92.43
57412;BME280;43247;52.828;-8.980;2023-07-31T05:10:48;100314.32;;;16.87;92.39
57412;BME280;43247;52.828;-8.980;2023-07-31T05:11:48;100316.13;;;16.86;92.39
57412;BME280;43247;52.828;-8.980;2023-07-31T05:12:49;100313.98;;;16.86;92.38
57412;BME280;43247;52.828;-8.980;2023-07-31T05:13:49;100315.15;;;16.85;92.40
57412;BME280;43247;52.828;-8.980;2023-07-31T05:14:49;100312.84;;;16.84;92.41